sensor_id;sensor_type;location;lat;lon;timestamp;pressure;altitude;pressure_sealevel;temperature;humidity
7774;BME280;3931;42.260;23.116;2023-03-14T00:01:43;95710.97;;;4.98;93.65
7774;BME280;3931;42.260;23.116;2023-03-14T00:04:09;95718.94;;;5.79;92.18
7774;BME280;3931;42.260;23.116;2023-03-14T00:06:35;95707.06;;;5.06;93.07
7774;BME280;3931;42.260;23.116;2023-03-14T00:09:01;95703.50;;;5.20;92.58
7774;BME280;3931;42.260;23.116;2023-03-14T00:11:27;95703.78;;;5.53;90.40
7774;BME280;3931;42.260;23.116;2023-03-14T00:13:53;95706.97;;;5.38;92.96
7774;BME280;3931;42.260;23.116;2023-03-14T00:16:19;95702.50;;;6.34;89.50
7774;BME280;3931;42.260;23.116;2023-03-14T00:18:46;95689.03;;;5.08;93.52
7774;BME280;3931;42.260;23.116;2023-03-14T00:21:13;95694.41;;;5.37;91.39
7774;BME280;3931;42.260;23.116;2023-03-14T00:23:40;95668.72;;;5.78;92.09
7774;BME280;3931;42.260;23.116;2023-03-14T00:26:08;95672.88;;;5.35;89.94
7774;BME280;3931;42.260;23.116;2023-03-14T00:28:35;95647.44;;;5.28;94.17
7774;BME280;3931;42.260;23.116;2023-03-14T00:31:02;95633.50;;;5.70;95.77
7774;BME280;3931;42.260;23.116;2023-03-14T00:33:28;95630.50;;;5.43;96.70
7774;BME280;3931;42.260;23.116;2023-03-14T00:35:57;95628.97;;;5.39;95.68
7774;BME280;3931;42.260;23.116;2023-03-14T00:38:24;95650.44;;;6.20;91.45
7774;BME280;3931;42.260;23.116;2023-03-14T00:40:51;95643.19;;;5.09;91.84
7774;BME280;3931;42.260;23.116;2023-03-14T00:43:17;95640.16;;;4.79;95.14
7774;BME280;3931;42.260;23.116;2023-03-14T00:45:43;95626.88;;;4.70;96.11
7774;BME280;3931;42.260;23.116;2023-03-14T00:48:09;95614.44;;;4.41;98.68
7774;BME280;3931;42.260;23.116;2023-03-14T00:50:35;95609.88;;;5.21;98.90
7774;BME280;3931;42.260;23.116;2023-03-14T00:53:02;95633.91;;;4.71;96.42
7774;BME280;3931;42.260;23.116;2023-03-14T00:55:28;95630.38;;;4.78;99.16
7774;BME280;3931;42.260;23.116;2023-03-14T00:57:54;95613.91;;;4.88;100.00
7774;BME280;3931;42.260;23.116;2023-03-14T01:00:20;95606.81;;;4.98;100.00
7774;BME280;3931;42.260;23.116;2023-03-14T01:02:46;95610.00;;;4.93;100.00
7774;BME280;3931;42.260;23.116;2023-03-14T01:05:12;95634.88;;;5.37;95.37
7774;BME280;3931;42.260;23.116;2023-03-14T01:07:38;95632.44;;;5.53;95.21
7774;BME280;3931;42.260;23.116;2023-03-14T01:10:07;95650.66;;;6.39;89.93
7774;BME280;3931;42.260;23.116;2023-03-14T01:12:33;95664.81;;;6.38;84.98
7774;BME280;3931;42.260;23.116;2023-03-14T01:15:00;95667.31;;;6.22;82.89
7774;BME280;3931;42.260;23.116;2023-03-14T01:17:26;95642.19;;;4.64;89.13
7774;BME280;3931;42.260;23.116;2023-03-14T01:19:52;95625.44;;;5.42;93.88
7774;BME280;3931;42.260;23.116;2023-03-14T01:22:18;95638.34;;;5.45;89.30
7774;BME280;3931;42.260;23.116;2023-03-14T01:24:44;95627.88;;;5.22;94.08
7774;BME280;3931;42.260;23.116;2023-03-14T01:27:11;95639.69;;;5.08;89.74
7774;BME280;3931;42.260;23.116;2023-03-14T01:29:37;95637.75;;;5.02;88.30
7774;BME280;3931;42.260;23.116;2023-03-14T01:32:03;95632.50;;;5.39;91.70
7774;BME280;3931;42.260;23.116;2023-03-14T01:34:29;95606.94;;;4.63;93.95
7774;BME280;3931;42.260;23.116;2023-03-14T01:36:55;95615.94;;;4.70;93.56
7774;BME280;3931;42.260;23.116;2023-03-14T01:39:21;95609.25;;;4.78;95.63
7774;BME280;3931;42.260;23.116;2023-03-14T01:41:47;95606.69;;;5.30;93.79
7774;BME280;3931;42.260;23.116;2023-03-14T01:44:14;95636.03;;;6.05;87.54
7774;BME280;3931;42.260;23.116;2023-03-14T01:46:41;95646.47;;;6.69;80.81
7774;BME280;3931;42.260;23.116;2023-03-14T01:49:18;95633.47;;;4.97;85.38
7774;BME280;3931;42.260;23.116;2023-03-14T01:51:49;95622.13;;;4.92;91.37
7774;BME280;3931;42.260;23.116;2023-03-14T01:54:20;95597.88;;;4.83;95.65
7774;BME280;3931;42.260;23.116;2023-03-14T01:56:51;95599.91;;;4.55;94.03
7774;BME280;3931;42.260;23.116;2023-03-14T01:59:20;95598.44;;;5.30;94.01
7774;BME280;3931;42.260;23.116;2023-03-14T02:01:47;95623.59;;;5.14;90.34
7774;BME280;3931;42.260;23.116;2023-03-14T02:04:17;95624.91;;;4.81;92.42
7774;BME280;3931;42.260;23.116;2023-03-14T02:06:49;95625.75;;;5.58;88.39
7774;BME280;3931;42.260;23.116;2023-03-14T02:09:15;95640.13;;;5.76;86.53
7774;BME280;3931;42.260;23.116;2023-03-14T02:11:43;95640.94;;;5.73;84.91
7774;BME280;3931;42.260;23.116;2023-03-14T02:14:19;95610.50;;;4.42;92.45
7774;BME280;3931;42.260;23.116;2023-03-14T02:16:48;95589.81;;;4.02;99.11
7774;BME280;3931;42.260;23.116;2023-03-14T02:19:17;95578.47;;;4.14;99.94
7774;BME280;3931;42.260;23.116;2023-03-14T02:21:49;95568.31;;;3.94;100.00
7774;BME280;3931;42.260;23.116;2023-03-14T02:24:24;95554.63;;;3.80;100.00
7774;BME280;3931;42.260;23.116;2023-03-14T02:27:08;95546.03;;;3.70;100.00
7774;BME280;3931;42.260;23.116;2023-03-14T02:29:37;95546.00;;;4.20;100.00
7774;BME280;3931;42.260;23.116;2023-03-14T02:32:06;95548.34;;;4.18;100.00
7774;BME280;3931;42.260;23.116;2023-03-14T02:34:33;95525.66;;;4.17;100.00
7774;BME280;3931;42.260;23.116;2023-03-14T02:37:00;95514.38;;;4.08;100.00
7774;BME280;3931;42.260;23.116;2023-03-14T02:39:31;95520.59;;;4.02;100.00
7774;BME280;3931;42.260;23.116;2023-03-14T02:41:59;95539.38;;;4.14;100.00
7774;BME280;3931;42.260;23.116;2023-03-14T02:44:25;95522.53;;;4.22;100.00
7774;BME280;3931;42.260;23.116;2023-03-14T02:46:51;95524.47;;;4.25;100.00
7774;BME280;3931;42.260;23.116;2023-03-14T02:49:18;95548.78;;;5.17;100.00
7774;BME280;3931;42.260;23.116;2023-03-14T02:51:45;95576.69;;;5.63;91.27
7774;BME280;3931;42.260;23.116;2023-03-14T02:54:11;95590.81;;;4.86;88.14
7774;BME280;3931;42.260;23.116;2023-03-14T02:56:38;95555.38;;;4.15;98.05
7774;BME280;3931;42.260;23.116;2023-03-14T02:59:04;95545.19;;;4.44;100.00
7774;BME280;3931;42.260;23.116;2023-03-14T03:01:31;95552.50;;;4.75;100.00
7774;BME280;3931;42.260;23.116;2023-03-14T03:03:58;95570.81;;;4.96;97.66
7774;BME280;3931;42.260;23.116;2023-03-14T03:06:24;95578.78;;;4.59;98.93
7774;BME280;3931;42.260;23.116;2023-03-14T03:08:50;95585.84;;;4.53;97.20
7774;BME280;3931;42.260;23.116;2023-03-14T03:11:16;95590.56;;;4.38;96.79
7774;BME280;3931;42.260;23.116;2023-03-14T03:13:42;95605.84;;;4.28;94.34
7774;BME280;3931;42.260;23.116;2023-03-14T03:16:09;95594.50;;;4.05;97.90
7774;BME280;3931;42.260;23.116;2023-03-14T03:18:35;95588.25;;;3.94;99.61
7774;BME280;3931;42.260;23.116;2023-03-14T03:21:02;95583.19;;;3.89;100.00
7774;BME280;3931;42.260;23.116;2023-03-14T03:23:30;95584.72;;;4.04;100.00
7774;BME280;3931;42.260;23.116;2023-03-14T03:25:56;95595.28;;;4.30;98.25
7774;BME280;3931;42.260;23.116;2023-03-14T03:28:22;95595.66;;;4.32;96.72
7774;BME280;3931;42.260;23.116;2023-03-14T03:30:48;95603.88;;;4.25;96.22
7774;BME280;3931;42.260;23.116;2023-03-14T03:33:14;95604.66;;;4.29;95.24
7774;BME280;3931;42.260;23.116;2023-03-14T03:35:45;95599.97;;;4.30;96.08
7774;BME280;3931;42.260;23.116;2023-03-14T03:38:12;95599.94;;;4.40;97.16
7774;BME280;3931;42.260;23.116;2023-03-14T03:40:38;95605.41;;;4.55;95.56
7774;BME280;3931;42.260;23.116;2023-03-14T03:43:04;95609.66;;;5.56;94.95
7774;BME280;3931;42.260;23.116;2023-03-14T03:45:30;95635.00;;;5.05;86.99
7774;BME280;3931;42.260;23.116;2023-03-14T03:47:56;95609.72;;;4.38;94.49
7774;BME280;3931;42.260;23.116;2023-03-14T03:50:22;95598.41;;;4.39;97.64
7774;BME280;3931;42.260;23.116;2023-03-14T03:52:49;95592.13;;;4.39;99.52
7774;BME280;3931;42.260;23.116;2023-03-14T03:55:15;95602.31;;;4.17;98.58
7774;BME280;3931;42.260;23.116;2023-03-14T03:57:41;95580.22;;;4.95;100.00
7774;BME280;3931;42.260;23.116;2023-03-14T04:00:09;95582.75;;;4.22;100.00
7774;BME280;3931;42.260;23.116;2023-03-14T04:02:37;95576.16;;;3.99;100.00
7774;BME280;3931;42.260;23.116;2023-03-14T04:05:03;95565.59;;;3.80;100.00
7774;BME280;3931;42.260;23.116;2023-03-14T04:07:31;95573.41;;;3.78;100.00
7774;BME280;3931;42.260;23.116;2023-03-14T04:09:58;95567.53;;;3.76;100.00
7774;BME280;3931;42.260;23.116;2023-03-14T04:12:24;95561.66;;;3.45;100.00
7774;BME280;3931;42.260;23.116;2023-03-14T04:14:50;95549.97;;;3.52;100.00
7774;BME280;3931;42.260;23.116;2023-03-14T04:17:16;95549.16;;;3.41;100.00
7774;BME280;3931;42.260;23.116;2023-03-14T04:19:42;95540.97;;;3.62;100.00
7774;BME280;3931;42.260;23.116;2023-03-14T04:22:08;95545.63;;;3.33;100.00
7774;BME280;3931;42.260;23.116;2023-03-14T04:24:34;95528.44;;;3.40;100.00
7774;BME280;3931;42.260;23.116;2023-03-14T04:27:01;95531.94;;;3.16;100.00
7774;BME280;3931;42.260;23.116;2023-03-14T04:29:27;95516.31;;;3.06;100.00
7774;BME280;3931;42.260;23.116;2023-03-14T04:31:53;95492.50;;;3.10;100.00
7774;BME280;3931;42.260;23.116;2023-03-14T04:34:19;95532.69;;;3.02;100.00
7774;BME280;3931;42.260;23.116;2023-03-14T04:36:45;95509.69;;;3.21;100.00
7774;BME280;3931;42.260;23.116;2023-03-14T04:39:11;95515.97;;;3.46;100.00
7774;BME280;3931;42.260;23.116;2023-03-14T04:41:37;95524.16;;;3.60;100.00
7774;BME280;3931;42.260;23.116;2023-03-14T04:44:10;95526.09;;;3.35;100.00
7774;BME280;3931;42.260;23.116;2023-03-14T04:46:36;95512.75;;;2.87;100.00
7774;BME280;3931;42.260;23.116;2023-03-14T04:49:02;95492.47;;;2.95;100.00
7774;BME280;3931;42.260;23.116;2023-03-14T04:51:28;95501.44;;;4.09;100.00
7774;BME280;3931;42.260;23.116;2023-03-14T04:53:54;95567.59;;;5.11;99.33
7774;BME280;3931;42.260;23.116;2023-03-14T04:56:20;95597.66;;;5.29;90.98
7774;BME280;3931;42.260;23.116;2023-03-14T04:58:46;95607.06;;;5.35;89.27
7774;BME280;3931;42.260;23.116;2023-03-14T05:01:13;95608.34;;;5.13;89.18
7774;BME280;3931;42.260;23.116;2023-03-14T05:03:39;95605.50;;;5.27;86.86
7774;BME280;3931;42.260;23.116;2023-03-14T05:06:06;95612.81;;;4.68;86.15
7774;BME280;3931;42.260;23.116;2023-03-14T05:08:32;95585.44;;;4.47;91.89
7774;BME280;3931;42.260;23.116;2023-03-14T05:10:58;95584.72;;;4.25;93.86
7774;BME280;3931;42.260;23.116;2023-03-14T05:13:24;95566.75;;;4.07;95.47
7774;BME280;3931;42.260;23.116;2023-03-14T05:15:50;95555.44;;;4.08;96.39
7774;BME280;3931;42.260;23.116;2023-03-14T05:18:17;95561.66;;;4.12;96.02
7774;BME280;3931;42.260;23.116;2023-03-14T05:20:43;95558.88;;;4.40;95.92
7774;BME280;3931;42.260;23.116;2023-03-14T05:23:09;95566.66;;;4.60;94.13
7774;BME280;3931;42.260;23.116;2023-03-14T05:25:35;95561.59;;;4.48;94.08
7774;BME280;3931;42.260;23.116;2023-03-14T05:28:01;95547.81;;;5.45;93.65
7774;BME280;3931;42.260;23.116;2023-03-14T05:30:27;95563.75;;;5.64;88.87
7774;BME280;3931;42.260;23.116;2023-03-14T05:32:53;95579.88;;;6.54;82.66
7774;BME280;3931;42.260;23.116;2023-03-14T05:35:20;95581.94;;;8.90;69.83
7774;BME280;3931;42.260;23.116;2023-03-14T05:37:46;95596.84;;;9.87;60.53
7774;BME280;3931;42.260;23.116;2023-03-14T05:40:12;95600.66;;;10.09;58.46
7774;BME280;3931;42.260;23.116;2023-03-14T05:42:38;95595.34;;;10.18;56.97
7774;BME280;3931;42.260;23.116;2023-03-14T05:45:05;95600.38;;;9.88;57.07
7774;BME280;3931;42.260;23.116;2023-03-14T05:47:31;95597.31;;;9.66;57.86
7774;BME280;3931;42.260;23.116;2023-03-14T05:49:57;95592.19;;;8.90;59.74
7774;BME280;3931;42.260;23.116;2023-03-14T05:52:24;95583.72;;;9.55;61.78
7774;BME280;3931;42.260;23.116;2023-03-14T05:54:50;95580.78;;;8.88;61.17
7774;BME280;3931;42.260;23.116;2023-03-14T05:57:16;95583.00;;;8.96;62.27
7774;BME280;3931;42.260;23.116;2023-03-14T05:59:42;95572.81;;;8.27;61.77
7774;BME280;3931;42.260;23.116;2023-03-14T06:02:08;95586.41;;;9.04;62.18
7774;BME280;3931;42.260;23.116;2023-03-14T06:04:34;95580.22;;;9.35;59.87
7774;BME280;3931;42.260;23.116;2023-03-14T06:07:00;95582.97;;;9.55;58.58
7774;BME280;3931;42.260;23.116;2023-03-14T06:09:27;95582.94;;;9.91;57.58
7774;BME280;3931;42.260;23.116;2023-03-14T06:11:53;95588.38;;;9.94;56.93
7774;BME280;3931;42.260;23.116;2023-03-14T06:14:19;95589.03;;;10.18;55.15
7774;BME280;3931;42.260;23.116;2023-03-14T06:16:45;95586.88;;;10.25;54.45
7774;BME280;3931;42.260;23.116;2023-03-14T06:19:13;95572.66;;;10.56;54.36
7774;BME280;3931;42.260;23.116;2023-03-14T06:21:39;95575.53;;;10.68;53.28
7774;BME280;3931;42.260;23.116;2023-03-14T06:24:05;95578.16;;;10.11;53.30
7774;BME280;3931;42.260;23.116;2023-03-14T06:26:32;95587.56;;;10.13;54.00
7774;BME280;3931;42.260;23.116;2023-03-14T06:28:58;95589.69;;;10.06;54.33
7774;BME280;3931;42.260;23.116;2023-03-14T06:31:28;95590.72;;;9.96;54.61
7774;BME280;3931;42.260;23.116;2023-03-14T06:33:54;95599.41;;;10.62;52.51
7774;BME280;3931;42.260;23.116;2023-03-14T06:36:20;95595.25;;;9.70;53.99
7774;BME280;3931;42.260;23.116;2023-03-14T06:38:46;95595.06;;;9.22;55.38
7774;BME280;3931;42.260;23.116;2023-03-14T06:41:12;95597.72;;;10.00;55.02
7774;BME280;3931;42.260;23.116;2023-03-14T06:43:39;95600.09;;;9.66;53.49
7774;BME280;3931;42.260;23.116;2023-03-14T06:46:05;95596.75;;;10.27;53.49
7774;BME280;3931;42.260;23.116;2023-03-14T06:48:31;95593.38;;;9.83;52.98
7774;BME280;3931;42.260;23.116;2023-03-14T06:50:57;95595.78;;;10.94;51.02
7774;BME280;3931;42.260;23.116;2023-03-14T06:53:23;95581.00;;;11.54;49.66
7774;BME280;3931;42.260;23.116;2023-03-14T06:55:49;95577.41;;;11.70;50.83
7774;BME280;3931;42.260;23.116;2023-03-14T06:58:15;95575.66;;;11.35;51.28
7774;BME280;3931;42.260;23.116;2023-03-14T07:00:42;95563.34;;;11.23;49.89
7774;BME280;3931;42.260;23.116;2023-03-14T07:03:09;95565.78;;;11.88;49.28
7774;BME280;3931;42.260;23.116;2023-03-14T07:05:35;95556.59;;;11.78;49.01
7774;BME280;3931;42.260;23.116;2023-03-14T07:08:01;95555.75;;;11.52;50.01
7774;BME280;3931;42.260;23.116;2023-03-14T07:10:27;95550.06;;;11.85;49.57
7774;BME280;3931;42.260;23.116;2023-03-14T07:12:53;95541.97;;;11.78;49.17
7774;BME280;3931;42.260;23.116;2023-03-14T07:15:19;95537.69;;;12.70;48.26
7774;BME280;3931;42.260;23.116;2023-03-14T07:17:46;95534.91;;;12.83;46.64
7774;BME280;3931;42.260;23.116;2023-03-14T07:20:13;95531.38;;;12.35;48.98
7774;BME280;3931;42.260;23.116;2023-03-14T07:22:39;95524.25;;;12.47;48.88
7774;BME280;3931;42.260;23.116;2023-03-14T07:25:06;95525.75;;;12.14;49.08
7774;BME280;3931;42.260;23.116;2023-03-14T07:27:34;95530.03;;;13.08;47.51
7774;BME280;3931;42.260;23.116;2023-03-14T07:30:00;95528.59;;;13.78;47.09
7774;BME280;3931;42.260;23.116;2023-03-14T07:32:26;95519.25;;;13.63;45.65
7774;BME280;3931;42.260;23.116;2023-03-14T07:34:53;95512.38;;;13.02;45.50
7774;BME280;3931;42.260;23.116;2023-03-14T07:37:19;95506.19;;;12.98;46.48
7774;BME280;3931;42.260;23.116;2023-03-14T07:39:45;95504.31;;;13.39;46.01
7774;BME280;3931;42.260;23.116;2023-03-14T07:42:11;95507.25;;;13.44;46.39
7774;BME280;3931;42.260;23.116;2023-03-14T07:44:37;95504.00;;;12.59;48.98
7774;BME280;3931;42.260;23.116;2023-03-14T07:47:03;95505.41;;;13.20;47.75
7774;BME280;3931;42.260;23.116;2023-03-14T07:49:29;95499.81;;;13.63;47.55
7774;BME280;3931;42.260;23.116;2023-03-14T07:51:56;95506.63;;;13.40;46.66
7774;BME280;3931;42.260;23.116;2023-03-14T07:54:23;95498.88;;;14.45;46.13
7774;BME280;3931;42.260;23.116;2023-03-14T07:56:50;95494.22;;;14.51;45.16
7774;BME280;3931;42.260;23.116;2023-03-14T07:59:17;95489.78;;;13.65;46.38
7774;BME280;3931;42.260;23.116;2023-03-14T08:01:43;95487.94;;;12.97;47.36
7774;BME280;3931;42.260;23.116;2023-03-14T08:04:09;95493.53;;;13.41;46.99
7774;BME280;3931;42.260;23.116;2023-03-14T08:06:35;95485.56;;;13.92;44.14
7774;BME280;3931;42.260;23.116;2023-03-14T08:09:02;95495.38;;;13.00;46.33
7774;BME280;3931;42.260;23.116;2023-03-14T08:11:28;95486.22;;;14.05;45.39
7774;BME280;3931;42.260;23.116;2023-03-14T08:13:54;95485.28;;;13.06;47.53
7774;BME280;3931;42.260;23.116;2023-03-14T08:16:21;95494.44;;;14.08;45.36
7774;BME280;3931;42.260;23.116;2023-03-14T08:18:47;95489.22;;;14.28;45.54
7774;BME280;3931;42.260;23.116;2023-03-14T08:21:14;95486.63;;;14.43;44.02
7774;BME280;3931;42.260;23.116;2023-03-14T08:23:40;95479.44;;;14.15;44.70
7774;BME280;3931;42.260;23.116;2023-03-14T08:26:07;95484.50;;;14.92;43.93
7774;BME280;3931;42.260;23.116;2023-03-14T08:28:33;95481.72;;;14.74;43.96
7774;BME280;3931;42.260;23.116;2023-03-14T08:31:00;95480.63;;;14.72;43.42
7774;BME280;3931;42.260;23.116;2023-03-14T08:33:28;95469.16;;;14.51;43.46
7774;BME280;3931;42.260;23.116;2023-03-14T08:35:55;95477.38;;;13.57;44.90
7774;BME280;3931;42.260;23.116;2023-03-14T08:38:22;95477.56;;;14.03;43.91
7774;BME280;3931;42.260;23.116;2023-03-14T08:40:48;95457.00;;;15.54;42.16
7774;BME280;3931;42.260;23.116;2023-03-14T08:43:16;95454.56;;;15.20;42.64
7774;BME280;3931;42.260;23.116;2023-03-14T08:45:42;95451.38;;;14.58;43.69
7774;BME280;3931;42.260;23.116;2023-03-14T08:48:08;95449.78;;;15.20;41.52
7774;BME280;3931;42.260;23.116;2023-03-14T08:50:34;95444.16;;;15.89;42.00
7774;BME280;3931;42.260;23.116;2023-03-14T08:53:00;95452.22;;;16.44;41.44
7774;BME280;3931;42.260;23.116;2023-03-14T08:55:27;95447.09;;;15.95;41.59
7774;BME280;3931;42.260;23.116;2023-03-14T08:57:53;95443.56;;;17.33;39.48
7774;BME280;3931;42.260;23.116;2023-03-14T09:00:21;95434.84;;;16.87;39.89
7774;BME280;3931;42.260;23.116;2023-03-14T09:02:47;95438.22;;;16.91;40.35
7774;BME280;3931;42.260;23.116;2023-03-14T09:05:13;95439.59;;;16.57;40.68
7774;BME280;3931;42.260;23.116;2023-03-14T09:07:40;95427.50;;;16.90;39.62
7774;BME280;3931;42.260;23.116;2023-03-14T09:10:08;95412.00;;;16.50;39.48
7774;BME280;3931;42.260;23.116;2023-03-14T09:12:34;95416.63;;;16.30;39.57
7774;BME280;3931;42.260;23.116;2023-03-14T09:15:00;95402.09;;;16.02;40.35
7774;BME280;3931;42.260;23.116;2023-03-14T09:17:27;95396.53;;;16.64;39.39
7774;BME280;3931;42.260;23.116;2023-03-14T09:19:53;95389.53;;;16.83;39.68
7774;BME280;3931;42.260;23.116;2023-03-14T09:22:19;95380.19;;;17.59;39.35
7774;BME280;3931;42.260;23.116;2023-03-14T09:24:46;95377.97;;;16.37;40.93
7774;BME280;3931;42.260;23.116;2023-03-14T09:27:12;95370.19;;;17.23;41.00
7774;BME280;3931;42.260;23.116;2023-03-14T09:29:38;95368.06;;;16.89;40.78
7774;BME280;3931;42.260;23.116;2023-03-14T09:32:04;95360.97;;;18.01;39.46
7774;BME280;3931;42.260;23.116;2023-03-14T09:34:31;95346.28;;;18.06;38.96
7774;BME280;3931;42.260;23.116;2023-03-14T09:36:57;95338.91;;;17.39;39.61
7774;BME280;3931;42.260;23.116;2023-03-14T09:39:23;95330.94;;;18.22;38.93
7774;BME280;3931;42.260;23.116;2023-03-14T09:41:51;95330.00;;;17.06;39.33
7774;BME280;3931;42.260;23.116;2023-03-14T09:44:23;95326.81;;;18.38;39.66
7774;BME280;3931;42.260;23.116;2023-03-14T09:46:52;95319.47;;;18.00;38.53
7774;BME280;3931;42.260;23.116;2023-03-14T09:49:21;95313.91;;;18.91;38.80
7774;BME280;3931;42.260;23.116;2023-03-14T09:51:52;95309.53;;;17.99;39.68
7774;BME280;3931;42.260;23.116;2023-03-14T09:54:30;95300.16;;;17.47;40.75
7774;BME280;3931;42.260;23.116;2023-03-14T09:56:57;95287.38;;;18.61;38.45
7774;BME280;3931;42.260;23.116;2023-03-14T09:59:23;95288.78;;;19.34;37.45
7774;BME280;3931;42.260;23.116;2023-03-14T10:01:50;95290.50;;;18.69;37.34
7774;BME280;3931;42.260;23.116;2023-03-14T10:04:21;95286.53;;;19.75;38.55
7774;BME280;3931;42.260;23.116;2023-03-14T10:06:48;95289.03;;;18.28;38.19
7774;BME280;3931;42.260;23.116;2023-03-14T10:09:18;95279.16;;;17.92;38.32
7774;BME280;3931;42.260;23.116;2023-03-14T10:11:51;95271.31;;;18.62;38.04
7774;BME280;3931;42.260;23.116;2023-03-14T10:14:29;95267.03;;;18.66;37.55
7774;BME280;3931;42.260;23.116;2023-03-14T10:17:04;95259.84;;;20.01;37.46
7774;BME280;3931;42.260;23.116;2023-03-14T10:19:32;95264.59;;;19.79;36.52
7774;BME280;3931;42.260;23.116;2023-03-14T10:22:00;95254.31;;;19.28;36.18
7774;BME280;3931;42.260;23.116;2023-03-14T10:24:30;95245.81;;;19.17;37.13
7774;BME280;3931;42.260;23.116;2023-03-14T10:26:59;95241.00;;;19.23;37.72
7774;BME280;3931;42.260;23.116;2023-03-14T10:29:28;95227.13;;;19.39;37.14
7774;BME280;3931;42.260;23.116;2023-03-14T10:31:57;95231.59;;;19.26;36.33
7774;BME280;3931;42.260;23.116;2023-03-14T10:34:28;95223.03;;;18.72;37.55
7774;BME280;3931;42.260;23.116;2023-03-14T10:36:56;95212.81;;;19.01;37.86
7774;BME280;3931;42.260;23.116;2023-03-14T10:39:26;95207.47;;;19.87;36.57
7774;BME280;3931;42.260;23.116;2023-03-14T10:41:56;95198.47;;;19.30;37.25
7774;BME280;3931;42.260;23.116;2023-03-14T10:44:28;95188.56;;;18.98;37.92
7774;BME280;3931;42.260;23.116;2023-03-14T10:46:56;95167.81;;;19.21;37.69
7774;BME280;3931;42.260;23.116;2023-03-14T10:49:27;95164.38;;;19.00;39.20
7774;BME280;3931;42.260;23.116;2023-03-14T10:51:54;95147.53;;;19.00;39.55
7774;BME280;3931;42.260;23.116;2023-03-14T10:54:21;95147.09;;;19.13;38.66
7774;BME280;3931;42.260;23.116;2023-03-14T10:56:57;95143.88;;;19.31;37.91
7774;BME280;3931;42.260;23.116;2023-03-14T10:59:23;95147.13;;;19.18;39.37
7774;BME280;3931;42.260;23.116;2023-03-14T11:01:56;95136.25;;;19.31;37.84
7774;BME280;3931;42.260;23.116;2023-03-14T11:04:41;95124.28;;;20.01;37.45
7774;BME280;3931;42.260;23.116;2023-03-14T11:07:18;95119.44;;;18.52;39.20
7774;BME280;3931;42.260;23.116;2023-03-14T11:09:56;95111.91;;;18.69;39.01
7774;BME280;3931;42.260;23.116;2023-03-14T11:12:39;95101.88;;;19.36;38.38
7774;BME280;3931;42.260;23.116;2023-03-14T11:15:15;95097.91;;;19.12;38.40
7774;BME280;3931;42.260;23.116;2023-03-14T11:17:51;95092.50;;;19.03;38.54
7774;BME280;3931;42.260;23.116;2023-03-14T11:20:31;95077.88;;;19.35;38.31
7774;BME280;3931;42.260;23.116;2023-03-14T11:23:04;95068.16;;;19.31;37.96
7774;BME280;3931;42.260;23.116;2023-03-14T11:25:38;95074.25;;;19.24;37.88
7774;BME280;3931;42.260;23.116;2023-03-14T11:28:17;95059.94;;;20.86;35.83
7774;BME280;3931;42.260;23.116;2023-03-14T11:30:50;95051.81;;;20.32;36.61
7774;BME280;3931;42.260;23.116;2023-03-14T11:33:17;95045.41;;;19.99;36.59
7774;BME280;3931;42.260;23.116;2023-03-14T11:35:49;95039.22;;;20.83;35.50
7774;BME280;3931;42.260;23.116;2023-03-14T11:38:27;95033.13;;;20.68;35.46
7774;BME280;3931;42.260;23.116;2023-03-14T11:40:55;95029.81;;;20.03;35.70
7774;BME280;3931;42.260;23.116;2023-03-14T11:43:29;95023.19;;;20.56;35.06
7774;BME280;3931;42.260;23.116;2023-03-14T11:46:01;95017.81;;;20.53;35.50
7774;BME280;3931;42.260;23.116;2023-03-14T11:48:35;95003.72;;;20.75;34.86
7774;BME280;3931;42.260;23.116;2023-03-14T11:51:07;94995.63;;;21.23;34.40
7774;BME280;3931;42.260;23.116;2023-03-14T11:53:40;94987.41;;;21.77;34.44
7774;BME280;3931;42.260;23.116;2023-03-14T11:56:11;94988.94;;;21.37;31.96
7774;BME280;3931;42.260;23.116;2023-03-14T11:58:54;94982.19;;;20.94;32.98
7774;BME280;3931;42.260;23.116;2023-03-14T12:01:23;94970.44;;;21.47;32.00
7774;BME280;3931;42.260;23.116;2023-03-14T12:03:56;94957.97;;;21.78;33.47
7774;BME280;3931;42.260;23.116;2023-03-14T12:06:29;94950.75;;;22.18;32.66
7774;BME280;3931;42.260;23.116;2023-03-14T12:08:58;94954.94;;;22.06;32.36
7774;BME280;3931;42.260;23.116;2023-03-14T12:11:32;94953.59;;;21.77;34.12
7774;BME280;3931;42.260;23.116;2023-03-14T12:14:00;94946.06;;;21.20;34.76
7774;BME280;3931;42.260;23.116;2023-03-14T12:16:37;94940.66;;;21.22;34.85
7774;BME280;3931;42.260;23.116;2023-03-14T12:19:27;94931.63;;;21.35;35.30
7774;BME280;3931;42.260;23.116;2023-03-14T12:21:58;94936.56;;;21.23;34.12
7774;BME280;3931;42.260;23.116;2023-03-14T12:24:27;94933.97;;;22.01;33.70
7774;BME280;3931;42.260;23.116;2023-03-14T12:26:56;94932.63;;;21.78;33.49
7774;BME280;3931;42.260;23.116;2023-03-14T12:29:23;94919.84;;;21.36;34.67
7774;BME280;3931;42.260;23.116;2023-03-14T12:32:07;94915.97;;;21.45;31.46
7774;BME280;3931;42.260;23.116;2023-03-14T12:34:34;94903.53;;;20.77;30.90
7774;BME280;3931;42.260;23.116;2023-03-14T12:37:14;94911.91;;;20.83;33.62
7774;BME280;3931;42.260;23.116;2023-03-14T12:39:47;94911.47;;;20.68;34.60
7774;BME280;3931;42.260;23.116;2023-03-14T12:42:35;94902.84;;;21.53;32.30
7774;BME280;3931;42.260;23.116;2023-03-14T12:45:22;94914.19;;;20.90;30.99
7774;BME280;3931;42.260;23.116;2023-03-14T12:48:10;94914.34;;;21.14;29.60
7774;BME280;3931;42.260;23.116;2023-03-14T12:50:45;94897.78;;;20.42;30.43
7774;BME280;3931;42.260;23.116;2023-03-14T12:53:38;94889.50;;;21.24;30.72
7774;BME280;3931;42.260;23.116;2023-03-14T12:56:24;94885.50;;;21.49;30.64
7774;BME280;3931;42.260;23.116;2023-03-14T12:59:05;94880.03;;;21.56;29.98
7774;BME280;3931;42.260;23.116;2023-03-14T13:01:33;94870.09;;;21.20;30.03
7774;BME280;3931;42.260;23.116;2023-03-14T13:04:04;94863.78;;;21.38;30.49
7774;BME280;3931;42.260;23.116;2023-03-14T13:06:47;94859.50;;;21.67;29.47
7774;BME280;3931;42.260;23.116;2023-03-14T13:09:36;94852.81;;;21.40;29.72
7774;BME280;3931;42.260;23.116;2023-03-14T13:12:03;94848.94;;;20.51;30.42
7774;BME280;3931;42.260;23.116;2023-03-14T13:14:33;94851.47;;;20.60;30.90
7774;BME280;3931;42.260;23.116;2023-03-14T13:17:00;94838.16;;;20.66;31.04
7774;BME280;3931;42.260;23.116;2023-03-14T13:19:28;94830.91;;;20.81;31.48
7774;BME280;3931;42.260;23.116;2023-03-14T13:21:59;94828.31;;;20.31;31.71